VTBD/DMK METAR and TAF weather

Enter ICAO airport designator
Station Type Date Time Source
VTBD METAR 2018/12/19 09:00 UTC NOAA

VTBD 190900Z 10005KT 030V170 9999 FEW040 33/21 Q1012 NOSIG


Station Type Date Time Source
VTBD Decoded METAR 2018/12/19 09:00 UTC NOAA

Don Muang, Thailand (VTBD) 13-55N 100-36E 12M
Dec 19, 2018 - 04:00 AM EST / 2018.12.19 0900 UTC
Wind: from the E (100 degrees) at 6 MPH (5 KT) (direction variable):0
Visibility: greater than 7 mile(s):0
Sky conditions: mostly clear
Temperature: 91 F (33 C)
Heat index: 96.1 F (35.6 C):1
Dew Point: 69 F (21 C)
Relative Humidity: 49%
Pressure (altimeter): 29.88 in. Hg (1012 hPa)
ob: VTBD 190900Z 10005KT 030V170 9999 FEW040 33/21 Q1012 NOSIG
cycle: 9

Station Type Date Time Source
VTBD TAF 2018/12/19 06:37 UTC NOAA

TAF VTBD 190500Z 1906/2012 10008KT 9000 FEW030
BECMG 1911/1913 01005KT
BECMG 2001/2003 11008KT


Example: see airport list